sensor_id;sensor_type;location;lat;lon;timestamp;P1;durP1;ratioP1;P2;durP2;ratioP2
15312;SDS011;7757;52.626;4.746;2022-08-21T00:01:15;10.60;;;2.85;;
15312;SDS011;7757;52.626;4.746;2022-08-21T00:03:44;11.05;;;2.60;;
15312;SDS011;7757;52.626;4.746;2022-08-21T00:06:11;12.20;;;3.03;;
15312;SDS011;7757;52.626;4.746;2022-08-21T00:08:38;11.38;;;2.53;;
15312;SDS011;7757;52.626;4.746;2022-08-21T00:11:05;9.75;;;2.40;;
15312;SDS011;7757;52.626;4.746;2022-08-21T00:13:34;9.00;;;2.50;;
15312;SDS011;7757;52.626;4.746;2022-08-21T00:16:01;11.25;;;2.72;;
15312;SDS011;7757;52.626;4.746;2022-08-21T00:18:28;10.77;;;2.83;;
15312;SDS011;7757;52.626;4.746;2022-08-21T00:20:56;10.82;;;2.90;;
15312;SDS011;7757;52.626;4.746;2022-08-21T00:23:22;11.75;;;2.97;;
15312;SDS011;7757;52.626;4.746;2022-08-21T00:25:49;10.90;;;3.28;;
15312;SDS011;7757;52.626;4.746;2022-08-21T00:28:15;10.30;;;3.15;;
15312;SDS011;7757;52.626;4.746;2022-08-21T00:30:44;12.93;;;3.25;;
15312;SDS011;7757;52.626;4.746;2022-08-21T00:33:11;11.63;;;3.03;;
15312;SDS011;7757;52.626;4.746;2022-08-21T00:35:38;11.45;;;3.38;;
15312;SDS011;7757;52.626;4.746;2022-08-21T00:38:07;11.27;;;3.00;;
15312;SDS011;7757;52.626;4.746;2022-08-21T00:40:35;10.93;;;3.35;;
15312;SDS011;7757;52.626;4.746;2022-08-21T00:43:03;13.70;;;3.28;;
15312;SDS011;7757;52.626;4.746;2022-08-21T00:45:31;11.82;;;3.72;;
15312;SDS011;7757;52.626;4.746;2022-08-21T00:48:00;9.88;;;3.13;;
15312;SDS011;7757;52.626;4.746;2022-08-21T00:50:27;11.13;;;3.47;;
15312;SDS011;7757;52.626;4.746;2022-08-21T00:52:57;11.30;;;3.50;;
15312;SDS011;7757;52.626;4.746;2022-08-21T00:55:26;11.85;;;3.50;;
15312;SDS011;7757;52.626;4.746;2022-08-21T00:57:55;10.75;;;3.17;;
15312;SDS011;7757;52.626;4.746;2022-08-21T01:00:26;10.85;;;3.30;;
15312;SDS011;7757;52.626;4.746;2022-08-21T01:02:54;10.68;;;3.47;;
15312;SDS011;7757;52.626;4.746;2022-08-21T01:05:23;11.90;;;3.67;;
15312;SDS011;7757;52.626;4.746;2022-08-21T01:07:50;10.07;;;3.38;;
15312;SDS011;7757;52.626;4.746;2022-08-21T01:10:17;10.15;;;3.30;;
15312;SDS011;7757;52.626;4.746;2022-08-21T01:12:44;10.93;;;3.20;;
15312;SDS011;7757;52.626;4.746;2022-08-21T01:15:11;10.85;;;3.17;;
15312;SDS011;7757;52.626;4.746;2022-08-21T01:17:41;10.85;;;3.28;;
15312;SDS011;7757;52.626;4.746;2022-08-21T01:20:09;9.25;;;2.88;;
15312;SDS011;7757;52.626;4.746;2022-08-21T01:22:38;11.65;;;2.95;;
15312;SDS011;7757;52.626;4.746;2022-08-21T01:25:05;9.73;;;2.85;;
15312;SDS011;7757;52.626;4.746;2022-08-21T01:27:33;10.50;;;3.20;;
15312;SDS011;7757;52.626;4.746;2022-08-21T01:30:01;9.90;;;2.88;;
15312;SDS011;7757;52.626;4.746;2022-08-21T01:32:33;9.45;;;2.50;;
15312;SDS011;7757;52.626;4.746;2022-08-21T01:35:01;11.52;;;3.00;;
15312;SDS011;7757;52.626;4.746;2022-08-21T01:37:28;10.93;;;3.17;;
15312;SDS011;7757;52.626;4.746;2022-08-21T01:39:56;9.70;;;3.03;;
15312;SDS011;7757;52.626;4.746;2022-08-21T01:42:23;9.57;;;2.85;;
15312;SDS011;7757;52.626;4.746;2022-08-21T01:44:51;9.90;;;2.70;;
15312;SDS011;7757;52.626;4.746;2022-08-21T01:47:17;11.68;;;3.15;;
15312;SDS011;7757;52.626;4.746;2022-08-21T01:49:44;10.93;;;2.85;;
15312;SDS011;7757;52.626;4.746;2022-08-21T01:52:11;10.73;;;3.10;;
15312;SDS011;7757;52.626;4.746;2022-08-21T01:54:38;11.55;;;2.95;;
15312;SDS011;7757;52.626;4.746;2022-08-21T01:57:06;9.88;;;2.72;;
15312;SDS011;7757;52.626;4.746;2022-08-21T01:59:33;8.55;;;2.50;;
15312;SDS011;7757;52.626;4.746;2022-08-21T02:02:00;10.27;;;2.58;;
15312;SDS011;7757;52.626;4.746;2022-08-21T02:04:27;9.50;;;2.55;;
15312;SDS011;7757;52.626;4.746;2022-08-21T02:06:53;11.75;;;2.92;;
15312;SDS011;7757;52.626;4.746;2022-08-21T02:09:20;9.05;;;2.60;;
15312;SDS011;7757;52.626;4.746;2022-08-21T02:11:47;11.05;;;2.60;;
15312;SDS011;7757;52.626;4.746;2022-08-21T02:14:15;10.60;;;2.70;;
15312;SDS011;7757;52.626;4.746;2022-08-21T02:16:42;8.85;;;2.40;;
15312;SDS011;7757;52.626;4.746;2022-08-21T02:19:10;9.15;;;2.78;;
15312;SDS011;7757;52.626;4.746;2022-08-21T02:21:38;9.48;;;2.80;;
15312;SDS011;7757;52.626;4.746;2022-08-21T02:24:05;8.02;;;2.33;;
15312;SDS011;7757;52.626;4.746;2022-08-21T02:26:32;11.23;;;2.38;;
15312;SDS011;7757;52.626;4.746;2022-08-21T02:28:59;10.55;;;2.72;;
15312;SDS011;7757;52.626;4.746;2022-08-21T02:31:28;9.02;;;2.35;;
15312;SDS011;7757;52.626;4.746;2022-08-21T02:33:54;9.73;;;2.60;;
15312;SDS011;7757;52.626;4.746;2022-08-21T02:36:21;7.97;;;2.35;;
15312;SDS011;7757;52.626;4.746;2022-08-21T02:38:47;8.85;;;2.60;;
15312;SDS011;7757;52.626;4.746;2022-08-21T02:41:15;8.00;;;2.30;;
15312;SDS011;7757;52.626;4.746;2022-08-21T02:43:43;10.98;;;2.42;;
15312;SDS011;7757;52.626;4.746;2022-08-21T02:46:10;9.23;;;2.40;;
15312;SDS011;7757;52.626;4.746;2022-08-21T02:48:40;10.30;;;2.53;;
15312;SDS011;7757;52.626;4.746;2022-08-21T02:51:08;10.25;;;2.83;;
15312;SDS011;7757;52.626;4.746;2022-08-21T02:53:36;9.20;;;2.10;;
15312;SDS011;7757;52.626;4.746;2022-08-21T02:56:04;8.75;;;2.40;;
15312;SDS011;7757;52.626;4.746;2022-08-21T02:58:33;11.88;;;2.78;;
15312;SDS011;7757;52.626;4.746;2022-08-21T03:01:02;9.35;;;2.28;;
15312;SDS011;7757;52.626;4.746;2022-08-21T03:03:29;8.05;;;2.13;;
15312;SDS011;7757;52.626;4.746;2022-08-21T03:05:57;10.05;;;2.88;;
15312;SDS011;7757;52.626;4.746;2022-08-21T03:08:23;8.88;;;2.45;;
15312;SDS011;7757;52.626;4.746;2022-08-21T03:10:51;11.40;;;3.00;;
15312;SDS011;7757;52.626;4.746;2022-08-21T03:13:18;10.85;;;2.53;;
15312;SDS011;7757;52.626;4.746;2022-08-21T03:15:46;10.23;;;2.47;;
15312;SDS011;7757;52.626;4.746;2022-08-21T03:18:13;8.95;;;2.47;;
15312;SDS011;7757;52.626;4.746;2022-08-21T03:20:41;12.45;;;2.60;;
15312;SDS011;7757;52.626;4.746;2022-08-21T03:23:11;11.27;;;2.70;;
15312;SDS011;7757;52.626;4.746;2022-08-21T03:25:38;8.88;;;2.35;;
15312;SDS011;7757;52.626;4.746;2022-08-21T03:28:06;12.13;;;2.88;;
15312;SDS011;7757;52.626;4.746;2022-08-21T03:30:35;11.55;;;2.60;;
15312;SDS011;7757;52.626;4.746;2022-08-21T03:33:02;10.15;;;2.42;;
15312;SDS011;7757;52.626;4.746;2022-08-21T03:35:29;11.68;;;2.72;;
15312;SDS011;7757;52.626;4.746;2022-08-21T03:37:55;11.48;;;2.38;;
15312;SDS011;7757;52.626;4.746;2022-08-21T03:40:23;10.10;;;2.50;;
15312;SDS011;7757;52.626;4.746;2022-08-21T03:42:50;11.73;;;2.47;;
15312;SDS011;7757;52.626;4.746;2022-08-21T03:45:17;8.77;;;2.53;;
15312;SDS011;7757;52.626;4.746;2022-08-21T03:47:53;11.20;;;2.35;;
15312;SDS011;7757;52.626;4.746;2022-08-21T03:50:22;10.10;;;2.78;;
15312;SDS011;7757;52.626;4.746;2022-08-21T03:52:50;10.35;;;2.75;;
15312;SDS011;7757;52.626;4.746;2022-08-21T03:55:16;10.07;;;2.22;;
15312;SDS011;7757;52.626;4.746;2022-08-21T03:57:45;11.45;;;2.58;;
15312;SDS011;7757;52.626;4.746;2022-08-21T04:00:12;12.32;;;2.50;;
15312;SDS011;7757;52.626;4.746;2022-08-21T04:02:41;11.13;;;2.60;;
15312;SDS011;7757;52.626;4.746;2022-08-21T04:05:08;9.77;;;2.40;;
15312;SDS011;7757;52.626;4.746;2022-08-21T04:07:35;9.70;;;2.50;;
15312;SDS011;7757;52.626;4.746;2022-08-21T04:10:02;10.23;;;2.42;;
15312;SDS011;7757;52.626;4.746;2022-08-21T04:12:30;9.32;;;2.30;;
15312;SDS011;7757;52.626;4.746;2022-08-21T04:14:58;9.80;;;2.28;;
15312;SDS011;7757;52.626;4.746;2022-08-21T04:17:27;8.15;;;2.50;;
15312;SDS011;7757;52.626;4.746;2022-08-21T04:19:53;9.23;;;2.47;;
15312;SDS011;7757;52.626;4.746;2022-08-21T04:22:20;10.07;;;2.55;;
15312;SDS011;7757;52.626;4.746;2022-08-21T04:24:47;9.18;;;2.28;;
15312;SDS011;7757;52.626;4.746;2022-08-21T04:27:14;8.25;;;2.10;;
15312;SDS011;7757;52.626;4.746;2022-08-21T04:29:41;11.80;;;2.22;;
15312;SDS011;7757;52.626;4.746;2022-08-21T04:32:09;9.32;;;2.47;;
15312;SDS011;7757;52.626;4.746;2022-08-21T04:34:35;10.20;;;2.25;;
15312;SDS011;7757;52.626;4.746;2022-08-21T04:37:02;10.13;;;2.40;;
15312;SDS011;7757;52.626;4.746;2022-08-21T04:39:29;9.43;;;2.00;;
15312;SDS011;7757;52.626;4.746;2022-08-21T04:41:55;10.80;;;2.03;;
15312;SDS011;7757;52.626;4.746;2022-08-21T04:44:22;9.95;;;2.28;;
15312;SDS011;7757;52.626;4.746;2022-08-21T04:46:48;11.05;;;2.17;;
15312;SDS011;7757;52.626;4.746;2022-08-21T04:49:16;11.25;;;2.15;;
15312;SDS011;7757;52.626;4.746;2022-08-21T04:51:43;10.13;;;2.30;;
15312;SDS011;7757;52.626;4.746;2022-08-21T04:54:12;9.10;;;2.03;;
15312;SDS011;7757;52.626;4.746;2022-08-21T04:56:44;10.35;;;2.28;;
15312;SDS011;7757;52.626;4.746;2022-08-21T04:59:13;8.77;;;2.03;;
15312;SDS011;7757;52.626;4.746;2022-08-21T05:01:46;10.85;;;2.40;;
15312;SDS011;7757;52.626;4.746;2022-08-21T05:04:14;10.65;;;2.60;;
15312;SDS011;7757;52.626;4.746;2022-08-21T05:06:45;10.27;;;2.28;;
15312;SDS011;7757;52.626;4.746;2022-08-21T05:09:15;10.65;;;1.92;;
15312;SDS011;7757;52.626;4.746;2022-08-21T05:11:43;11.30;;;2.10;;
15312;SDS011;7757;52.626;4.746;2022-08-21T05:14:10;11.07;;;2.10;;
15312;SDS011;7757;52.626;4.746;2022-08-21T05:16:37;9.18;;;2.00;;
15312;SDS011;7757;52.626;4.746;2022-08-21T05:19:05;7.72;;;1.83;;
15312;SDS011;7757;52.626;4.746;2022-08-21T05:21:34;9.68;;;2.28;;
15312;SDS011;7757;52.626;4.746;2022-08-21T05:24:02;9.07;;;2.00;;
15312;SDS011;7757;52.626;4.746;2022-08-21T05:26:29;10.82;;;2.00;;
15312;SDS011;7757;52.626;4.746;2022-08-21T05:28:55;9.63;;;1.90;;
15312;SDS011;7757;52.626;4.746;2022-08-21T05:31:22;11.13;;;2.40;;
15312;SDS011;7757;52.626;4.746;2022-08-21T05:33:49;7.60;;;1.85;;
15312;SDS011;7757;52.626;4.746;2022-08-21T05:36:16;10.52;;;1.90;;
15312;SDS011;7757;52.626;4.746;2022-08-21T05:38:45;10.07;;;2.13;;
15312;SDS011;7757;52.626;4.746;2022-08-21T05:41:11;11.60;;;2.05;;
15312;SDS011;7757;52.626;4.746;2022-08-21T05:43:38;12.00;;;2.95;;
15312;SDS011;7757;52.626;4.746;2022-08-21T05:46:04;10.85;;;2.30;;
15312;SDS011;7757;52.626;4.746;2022-08-21T05:48:33;9.68;;;1.83;;
15312;SDS011;7757;52.626;4.746;2022-08-21T05:51:04;10.88;;;2.22;;
15312;SDS011;7757;52.626;4.746;2022-08-21T05:53:31;11.50;;;2.35;;
15312;SDS011;7757;52.626;4.746;2022-08-21T05:56:00;8.27;;;2.15;;
15312;SDS011;7757;52.626;4.746;2022-08-21T05:58:29;8.75;;;1.75;;
15312;SDS011;7757;52.626;4.746;2022-08-21T06:00:58;7.82;;;1.77;;
15312;SDS011;7757;52.626;4.746;2022-08-21T06:03:26;10.77;;;2.70;;
15312;SDS011;7757;52.626;4.746;2022-08-21T06:05:55;11.43;;;2.50;;
15312;SDS011;7757;52.626;4.746;2022-08-21T06:08:22;9.27;;;2.28;;
15312;SDS011;7757;52.626;4.746;2022-08-21T06:10:50;12.85;;;2.15;;
15312;SDS011;7757;52.626;4.746;2022-08-21T06:13:20;12.45;;;2.40;;
15312;SDS011;7757;52.626;4.746;2022-08-21T06:15:48;11.27;;;2.30;;
15312;SDS011;7757;52.626;4.746;2022-08-21T06:18:15;11.13;;;2.30;;
15312;SDS011;7757;52.626;4.746;2022-08-21T06:20:42;11.60;;;2.15;;
15312;SDS011;7757;52.626;4.746;2022-08-21T06:23:09;8.85;;;2.00;;
15312;SDS011;7757;52.626;4.746;2022-08-21T06:25:36;9.43;;;1.98;;
15312;SDS011;7757;52.626;4.746;2022-08-21T06:28:03;7.43;;;1.80;;
15312;SDS011;7757;52.626;4.746;2022-08-21T06:30:33;8.18;;;1.75;;
15312;SDS011;7757;52.626;4.746;2022-08-21T06:33:01;8.75;;;2.10;;
15312;SDS011;7757;52.626;4.746;2022-08-21T06:35:28;10.95;;;2.17;;
15312;SDS011;7757;52.626;4.746;2022-08-21T06:37:55;9.95;;;2.20;;
15312;SDS011;7757;52.626;4.746;2022-08-21T06:40:22;9.73;;;1.98;;
15312;SDS011;7757;52.626;4.746;2022-08-21T06:42:48;10.35;;;2.45;;
15312;SDS011;7757;52.626;4.746;2022-08-21T06:45:15;6.78;;;1.95;;
15312;SDS011;7757;52.626;4.746;2022-08-21T06:47:43;12.38;;;2.60;;
15312;SDS011;7757;52.626;4.746;2022-08-21T06:50:10;13.48;;;2.35;;
15312;SDS011;7757;52.626;4.746;2022-08-21T06:52:37;11.93;;;2.22;;
15312;SDS011;7757;52.626;4.746;2022-08-21T06:55:05;13.15;;;2.40;;
15312;SDS011;7757;52.626;4.746;2022-08-21T06:57:33;10.43;;;2.20;;
15312;SDS011;7757;52.626;4.746;2022-08-21T07:00:00;10.93;;;2.40;;
15312;SDS011;7757;52.626;4.746;2022-08-21T07:02:27;11.45;;;2.83;;
15312;SDS011;7757;52.626;4.746;2022-08-21T07:04:55;12.70;;;2.65;;
15312;SDS011;7757;52.626;4.746;2022-08-21T07:07:21;11.68;;;2.58;;
15312;SDS011;7757;52.626;4.746;2022-08-21T07:09:48;9.48;;;2.33;;
15312;SDS011;7757;52.626;4.746;2022-08-21T07:12:14;14.20;;;2.17;;
15312;SDS011;7757;52.626;4.746;2022-08-21T07:14:41;8.88;;;2.30;;
15312;SDS011;7757;52.626;4.746;2022-08-21T07:17:08;10.45;;;2.10;;
15312;SDS011;7757;52.626;4.746;2022-08-21T07:19:34;12.32;;;2.00;;
15312;SDS011;7757;52.626;4.746;2022-08-21T07:22:03;13.27;;;2.88;;
15312;SDS011;7757;52.626;4.746;2022-08-21T07:24:30;11.48;;;2.50;;
15312;SDS011;7757;52.626;4.746;2022-08-21T07:26:56;10.93;;;2.30;;
15312;SDS011;7757;52.626;4.746;2022-08-21T07:29:23;10.95;;;2.20;;
15312;SDS011;7757;52.626;4.746;2022-08-21T07:31:49;13.05;;;2.80;;
15312;SDS011;7757;52.626;4.746;2022-08-21T07:34:16;8.50;;;2.25;;
15312;SDS011;7757;52.626;4.746;2022-08-21T07:36:42;9.98;;;2.20;;
15312;SDS011;7757;52.626;4.746;2022-08-21T07:39:10;12.30;;;2.40;;
15312;SDS011;7757;52.626;4.746;2022-08-21T07:41:37;10.95;;;2.47;;
15312;SDS011;7757;52.626;4.746;2022-08-21T07:44:03;12.60;;;2.60;;
15312;SDS011;7757;52.626;4.746;2022-08-21T07:46:30;10.70;;;2.30;;
15312;SDS011;7757;52.626;4.746;2022-08-21T07:48:57;11.32;;;2.03;;
15312;SDS011;7757;52.626;4.746;2022-08-21T07:51:25;9.65;;;2.10;;
15312;SDS011;7757;52.626;4.746;2022-08-21T07:53:54;10.75;;;2.35;;
15312;SDS011;7757;52.626;4.746;2022-08-21T07:56:24;15.60;;;2.42;;
15312;SDS011;7757;52.626;4.746;2022-08-21T07:58:50;12.65;;;2.42;;
15312;SDS011;7757;52.626;4.746;2022-08-21T08:01:17;8.40;;;1.95;;
15312;SDS011;7757;52.626;4.746;2022-08-21T08:03:44;11.32;;;2.28;;
15312;SDS011;7757;52.626;4.746;2022-08-21T08:06:11;8.98;;;2.25;;
15312;SDS011;7757;52.626;4.746;2022-08-21T08:08:38;10.93;;;2.20;;
15312;SDS011;7757;52.626;4.746;2022-08-21T08:11:05;14.65;;;2.08;;
15312;SDS011;7757;52.626;4.746;2022-08-21T08:13:39;12.45;;;2.60;;
15312;SDS011;7757;52.626;4.746;2022-08-21T08:16:06;10.52;;;2.03;;
15312;SDS011;7757;52.626;4.746;2022-08-21T08:18:33;9.45;;;2.15;;
15312;SDS011;7757;52.626;4.746;2022-08-21T08:21:00;12.80;;;2.40;;
15312;SDS011;7757;52.626;4.746;2022-08-21T08:23:26;11.32;;;2.45;;
15312;SDS011;7757;52.626;4.746;2022-08-21T08:25:55;8.00;;;1.92;;
15312;SDS011;7757;52.626;4.746;2022-08-21T08:28:22;11.10;;;2.38;;
15312;SDS011;7757;52.626;4.746;2022-08-21T08:30:50;11.40;;;2.20;;
15312;SDS011;7757;52.626;4.746;2022-08-21T08:33:17;10.75;;;2.08;;
15312;SDS011;7757;52.626;4.746;2022-08-21T08:35:45;12.18;;;2.10;;
15312;SDS011;7757;52.626;4.746;2022-08-21T08:38:15;12.52;;;2.17;;
15312;SDS011;7757;52.626;4.746;2022-08-21T08:40:45;10.27;;;2.20;;
15312;SDS011;7757;52.626;4.746;2022-08-21T08:43:16;11.37;;;2.20;;
15312;SDS011;7757;52.626;4.746;2022-08-21T08:45:44;9.75;;;2.05;;
15312;SDS011;7757;52.626;4.746;2022-08-21T08:48:17;11.27;;;2.42;;
15312;SDS011;7757;52.626;4.746;2022-08-21T08:50:58;11.98;;;2.20;;
15312;SDS011;7757;52.626;4.746;2022-08-21T08:53:28;9.57;;;2.50;;
15312;SDS011;7757;52.626;4.746;2022-08-21T08:55:58;9.13;;;1.90;;
15312;SDS011;7757;52.626;4.746;2022-08-21T08:58:28;9.45;;;1.90;;
15312;SDS011;7757;52.626;4.746;2022-08-21T09:00:57;11.02;;;1.95;;
15312;SDS011;7757;52.626;4.746;2022-08-21T09:03:26;9.38;;;2.10;;
15312;SDS011;7757;52.626;4.746;2022-08-21T09:05:54;10.05;;;2.03;;
15312;SDS011;7757;52.626;4.746;2022-08-21T09:08:32;10.25;;;2.40;;
15312;SDS011;7757;52.626;4.746;2022-08-21T09:11:16;11.25;;;2.42;;
15312;SDS011;7757;52.626;4.746;2022-08-21T09:13:53;12.00;;;2.10;;
15312;SDS011;7757;52.626;4.746;2022-08-21T09:16:29;10.50;;;2.22;;
15312;SDS011;7757;52.626;4.746;2022-08-21T09:19:09;9.63;;;2.17;;
15312;SDS011;7757;52.626;4.746;2022-08-21T09:21:52;11.18;;;2.50;;
15312;SDS011;7757;52.626;4.746;2022-08-21T09:24:25;9.35;;;1.90;;
15312;SDS011;7757;52.626;4.746;2022-08-21T09:27:02;9.70;;;2.28;;
15312;SDS011;7757;52.626;4.746;2022-08-21T09:29:33;11.55;;;2.22;;
15312;SDS011;7757;52.626;4.746;2022-08-21T09:32:02;9.35;;;1.90;;
15312;SDS011;7757;52.626;4.746;2022-08-21T09:34:35;12.30;;;2.40;;
15312;SDS011;7757;52.626;4.746;2022-08-21T09:37:02;9.70;;;1.90;;
15312;SDS011;7757;52.626;4.746;2022-08-21T09:39:30;7.72;;;2.03;;
15312;SDS011;7757;52.626;4.746;2022-08-21T09:41:58;12.10;;;2.03;;
15312;SDS011;7757;52.626;4.746;2022-08-21T09:44:27;10.85;;;2.15;;
15312;SDS011;7757;52.626;4.746;2022-08-21T09:46:55;7.70;;;1.92;;
15312;SDS011;7757;52.626;4.746;2022-08-21T09:49:28;11.20;;;2.20;;
15312;SDS011;7757;52.626;4.746;2022-08-21T09:51:56;9.48;;;2.00;;
15312;SDS011;7757;52.626;4.746;2022-08-21T09:54:26;9.23;;;1.90;;
15312;SDS011;7757;52.626;4.746;2022-08-21T09:56:57;9.63;;;1.95;;
15312;SDS011;7757;52.626;4.746;2022-08-21T09:59:43;9.68;;;1.80;;
15312;SDS011;7757;52.626;4.746;2022-08-21T10:02:21;9.32;;;2.10;;
15312;SDS011;7757;52.626;4.746;2022-08-21T10:04:51;9.60;;;2.47;;
15312;SDS011;7757;52.626;4.746;2022-08-21T10:07:21;14.73;;;2.20;;
15312;SDS011;7757;52.626;4.746;2022-08-21T10:09:57;9.02;;;2.00;;
15312;SDS011;7757;52.626;4.746;2022-08-21T10:12:28;9.75;;;1.98;;
15312;SDS011;7757;52.626;4.746;2022-08-21T10:15:01;8.82;;;2.20;;
15312;SDS011;7757;52.626;4.746;2022-08-21T10:17:37;9.68;;;2.25;;
15312;SDS011;7757;52.626;4.746;2022-08-21T10:20:11;10.93;;;2.03;;
15312;SDS011;7757;52.626;4.746;2022-08-21T10:22:46;9.27;;;1.90;;
15312;SDS011;7757;52.626;4.746;2022-08-21T10:25:28;8.48;;;1.90;;
15312;SDS011;7757;52.626;4.746;2022-08-21T10:28:00;9.10;;;1.67;;
15312;SDS011;7757;52.626;4.746;2022-08-21T10:30:37;10.60;;;1.98;;
15312;SDS011;7757;52.626;4.746;2022-08-21T10:33:26;5.55;;;1.52;;
15312;SDS011;7757;52.626;4.746;2022-08-21T10:36:02;8.90;;;2.10;;
15312;SDS011;7757;52.626;4.746;2022-08-21T10:41:37;7.95;;;1.90;;
15312;SDS011;7757;52.626;4.746;2022-08-21T10:44:13;9.77;;;1.85;;
15312;SDS011;7757;52.626;4.746;2022-08-21T10:46:51;9.70;;;2.22;;
15312;SDS011;7757;52.626;4.746;2022-08-21T10:49:24;10.25;;;2.03;;
15312;SDS011;7757;52.626;4.746;2022-08-21T10:52:05;7.80;;;1.80;;
15312;SDS011;7757;52.626;4.746;2022-08-21T10:54:56;9.23;;;1.77;;
15312;SDS011;7757;52.626;4.746;2022-08-21T10:57:30;7.43;;;1.80;;
15312;SDS011;7757;52.626;4.746;2022-08-21T11:00:05;10.55;;;1.98;;
15312;SDS011;7757;52.626;4.746;2022-08-21T11:02:36;8.20;;;1.83;;
15312;SDS011;7757;52.626;4.746;2022-08-21T11:05:09;9.25;;;1.90;;
15312;SDS011;7757;52.626;4.746;2022-08-21T11:07:43;12.77;;;2.45;;
15312;SDS011;7757;52.626;4.746;2022-08-21T11:10:14;14.13;;;2.15;;
15312;SDS011;7757;52.626;4.746;2022-08-21T11:12:46;13.40;;;2.00;;
15312;SDS011;7757;52.626;4.746;2022-08-21T11:15:20;8.90;;;1.75;;
15312;SDS011;7757;52.626;4.746;2022-08-21T11:17:54;9.55;;;1.85;;
15312;SDS011;7757;52.626;4.746;2022-08-21T11:20:29;13.95;;;2.05;;
15312;SDS011;7757;52.626;4.746;2022-08-21T11:25:36;7.95;;;1.77;;
15312;SDS011;7757;52.626;4.746;2022-08-21T11:28:08;10.40;;;1.80;;
15312;SDS011;7757;52.626;4.746;2022-08-21T11:30:39;9.63;;;2.03;;
15312;SDS011;7757;52.626;4.746;2022-08-21T11:33:20;9.32;;;1.90;;
15312;SDS011;7757;52.626;4.746;2022-08-21T11:35:59;10.13;;;2.00;;
15312;SDS011;7757;52.626;4.746;2022-08-21T11:38:34;13.05;;;2.22;;
15312;SDS011;7757;52.626;4.746;2022-08-21T11:41:11;9.77;;;2.20;;
15312;SDS011;7757;52.626;4.746;2022-08-21T11:43:46;11.05;;;1.98;;
15312;SDS011;7757;52.626;4.746;2022-08-21T11:46:20;10.82;;;1.75;;
15312;SDS011;7757;52.626;4.746;2022-08-21T11:48:58;9.88;;;1.98;;
15312;SDS011;7757;52.626;4.746;2022-08-21T11:51:41;10.70;;;1.75;;
15312;SDS011;7757;52.626;4.746;2022-08-21T11:54:20;9.68;;;1.90;;
15312;SDS011;7757;52.626;4.746;2022-08-21T11:56:55;10.88;;;1.95;;
15312;SDS011;7757;52.626;4.746;2022-08-21T11:59:30;10.43;;;2.10;;
15312;SDS011;7757;52.626;4.746;2022-08-21T12:02:03;7.20;;;1.70;;
15312;SDS011;7757;52.626;4.746;2022-08-21T12:04:42;9.57;;;1.73;;
15312;SDS011;7757;52.626;4.746;2022-08-21T12:07:12;10.60;;;2.08;;
15312;SDS011;7757;52.626;4.746;2022-08-21T12:09:40;10.43;;;1.80;;
15312;SDS011;7757;52.626;4.746;2022-08-21T12:12:24;9.15;;;1.70;;
15312;SDS011;7757;52.626;4.746;2022-08-21T12:15:03;7.70;;;1.80;;
15312;SDS011;7757;52.626;4.746;2022-08-21T12:17:39;9.60;;;1.85;;
15312;SDS011;7757;52.626;4.746;2022-08-21T12:20:15;12.23;;;2.03;;
15312;SDS011;7757;52.626;4.746;2022-08-21T12:22:47;7.03;;;1.50;;
15312;SDS011;7757;52.626;4.746;2022-08-21T12:25:19;7.43;;;1.52;;
15312;SDS011;7757;52.626;4.746;2022-08-21T12:27:49;10.90;;;1.85;;
15312;SDS011;7757;52.626;4.746;2022-08-21T12:30:20;9.65;;;2.10;;
15312;SDS011;7757;52.626;4.746;2022-08-21T12:32:54;6.93;;;1.65;;
15312;SDS011;7757;52.626;4.746;2022-08-21T12:37:52;9.40;;;1.70;;
15312;SDS011;7757;52.626;4.746;2022-08-21T12:40:26;8.55;;;1.70;;
15312;SDS011;7757;52.626;4.746;2022-08-21T12:42:58;9.93;;;1.70;;
15312;SDS011;7757;52.626;4.746;2022-08-21T12:45:28;7.25;;;1.67;;
15312;SDS011;7757;52.626;4.746;2022-08-21T12:47:58;10.07;;;2.03;;
15312;SDS011;7757;52.626;4.746;2022-08-21T12:50:29;9.82;;;1.60;;
15312;SDS011;7757;52.626;4.746;2022-08-21T12:53:02;7.25;;;1.50;;
15312;SDS011;7757;52.626;4.746;2022-08-21T12:55:33;8.52;;;1.70;;
15312;SDS011;7757;52.626;4.746;2022-08-21T12:58:02;9.38;;;1.70;;
15312;SDS011;7757;52.626;4.746;2022-08-21T13:00:32;6.63;;;1.40;;
15312;SDS011;7757;52.626;4.746;2022-08-21T13:02:58;9.75;;;1.58;;
15312;SDS011;7757;52.626;4.746;2022-08-21T13:05:33;9.13;;;1.60;;
15312;SDS011;7757;52.626;4.746;2022-08-21T13:08:03;8.02;;;1.63;;
15312;SDS011;7757;52.626;4.746;2022-08-21T13:10:32;8.25;;;1.60;;
15312;SDS011;7757;52.626;4.746;2022-08-21T13:13:02;7.88;;;1.80;;
15312;SDS011;7757;52.626;4.746;2022-08-21T13:15:32;7.65;;;1.65;;
15312;SDS011;7757;52.626;4.746;2022-08-21T13:18:01;10.30;;;1.92;;
15312;SDS011;7757;52.626;4.746;2022-08-21T13:20:30;7.85;;;1.70;;
15312;SDS011;7757;52.626;4.746;2022-08-21T13:22:59;12.40;;;1.80;;
15312;SDS011;7757;52.626;4.746;2022-08-21T13:25:27;9.32;;;1.83;;
15312;SDS011;7757;52.626;4.746;2022-08-21T13:27:57;12.05;;;2.08;;
15312;SDS011;7757;52.626;4.746;2022-08-21T13:30:27;9.13;;;1.70;;
15312;SDS011;7757;52.626;4.746;2022-08-21T13:32:56;10.18;;;2.10;;
15312;SDS011;7757;52.626;4.746;2022-08-21T13:35:25;9.90;;;1.65;;
15312;SDS011;7757;52.626;4.746;2022-08-21T13:37:54;7.10;;;1.50;;
15312;SDS011;7757;52.626;4.746;2022-08-21T13:40:23;9.32;;;1.70;;
15312;SDS011;7757;52.626;4.746;2022-08-21T13:42:51;8.88;;;1.67;;
15312;SDS011;7757;52.626;4.746;2022-08-21T13:45:22;10.13;;;1.90;;
15312;SDS011;7757;52.626;4.746;2022-08-21T13:47:52;8.48;;;1.45;;
15312;SDS011;7757;52.626;4.746;2022-08-21T13:50:21;11.85;;;1.90;;
15312;SDS011;7757;52.626;4.746;2022-08-21T13:52:55;9.25;;;1.60;;
15312;SDS011;7757;52.626;4.746;2022-08-21T13:55:26;7.07;;;1.40;;
15312;SDS011;7757;52.626;4.746;2022-08-21T13:58:01;9.32;;;1.70;;
15312;SDS011;7757;52.626;4.746;2022-08-21T14:00:29;10.15;;;2.00;;
15312;SDS011;7757;52.626;4.746;2022-08-21T14:03:02;7.93;;;1.58;;
15312;SDS011;7757;52.626;4.746;2022-08-21T14:05:33;8.43;;;1.70;;
15312;SDS011;7757;52.626;4.746;2022-08-21T14:08:03;8.02;;;1.63;;
15312;SDS011;7757;52.626;4.746;2022-08-21T14:10:34;9.50;;;1.80;;
15312;SDS011;7757;52.626;4.746;2022-08-21T14:13:04;10.85;;;1.75;;
15312;SDS011;7757;52.626;4.746;2022-08-21T14:15:32;9.15;;;1.60;;
15312;SDS011;7757;52.626;4.746;2022-08-21T14:18:08;10.43;;;1.90;;
15312;SDS011;7757;52.626;4.746;2022-08-21T14:20:40;11.63;;;1.52;;
15312;SDS011;7757;52.626;4.746;2022-08-21T14:23:07;9.70;;;2.05;;
15312;SDS011;7757;52.626;4.746;2022-08-21T14:25:37;9.73;;;1.73;;
15312;SDS011;7757;52.626;4.746;2022-08-21T14:28:10;9.80;;;1.80;;
15312;SDS011;7757;52.626;4.746;2022-08-21T14:30:46;11.60;;;1.90;;
15312;SDS011;7757;52.626;4.746;2022-08-21T14:33:18;10.13;;;2.33;;
15312;SDS011;7757;52.626;4.746;2022-08-21T14:35:49;9.45;;;1.75;;
15312;SDS011;7757;52.626;4.746;2022-08-21T14:38:16;8.93;;;1.65;;
15312;SDS011;7757;52.626;4.746;2022-08-21T14:40:44;10.15;;;1.95;;
15312;SDS011;7757;52.626;4.746;2022-08-21T14:43:14;10.10;;;2.00;;
15312;SDS011;7757;52.626;4.746;2022-08-21T14:45:41;11.82;;;1.90;;
15312;SDS011;7757;52.626;4.746;2022-08-21T14:48:08;10.18;;;1.95;;
15312;SDS011;7757;52.626;4.746;2022-08-21T14:50:37;13.50;;;1.90;;
15312;SDS011;7757;52.626;4.746;2022-08-21T14:53:04;9.52;;;2.20;;
15312;SDS011;7757;52.626;4.746;2022-08-21T14:55:31;9.80;;;1.90;;
15312;SDS011;7757;52.626;4.746;2022-08-21T14:58:19;12.95;;;2.10;;
15312;SDS011;7757;52.626;4.746;2022-08-21T15:00:48;12.23;;;2.08;;
15312;SDS011;7757;52.626;4.746;2022-08-21T15:03:15;10.27;;;2.00;;
15312;SDS011;7757;52.626;4.746;2022-08-21T15:05:43;13.00;;;2.17;;
15312;SDS011;7757;52.626;4.746;2022-08-21T15:08:09;13.43;;;2.00;;
15312;SDS011;7757;52.626;4.746;2022-08-21T15:10:36;10.68;;;1.92;;
15312;SDS011;7757;52.626;4.746;2022-08-21T15:13:03;9.90;;;2.03;;
15312;SDS011;7757;52.626;4.746;2022-08-21T15:15:30;10.77;;;2.30;;